KCNO

Chino Airport

Chino, California, USA
METAR KCNO 221653Z 08013G25KT 10SM CLR 14/M09 A3024 RMK AO2 PK WND 09036/1621 SLP239 T01441089
Observed Flight Rules
Jan-22 @ 16:53 UTC (35 minutes ago) Visual Flight Rules
Wind Visibility Clouds
80° at 13 knots
 Gusting to 25 knots
10 miles
  • Clear skies
Temperatures Readings
Current 14°C / 57°F
Dewpoint -9°C / 16°F
Humidity 20%
Altimeter 30.24" Hg
Pressure 1023.9 hPa
Elevation 207
METAR KCNO 221653Z 08013G25KT 10SM CLR 14/M09 A3024 RMK AO2 PK WND 09036/1621 SLP239 T01441089
Observed Flight Rules
Jan-22 @ 16:53 UTC
(35 minutes ago)
VFR
Wind Visibility
80° at 13 knots
 Gusting to 25 knots
10 miles
Clouds
  • Clear skies
Temperature Dewpoint
14°C / 57°F -9°C / 16°F
Humidity Altimeter Pressure
20% 30.24" Hg 1023.9 hPa